createdAt,value
2023-03-31T00:01:28.788Z,94303.22
2023-03-31T00:04:04.872Z,94301.34
2023-03-31T00:06:39.200Z,94313.63
2023-03-31T00:09:11.484Z,94311.75
2023-03-31T00:11:40.618Z,94310.06
2023-03-31T00:14:09.996Z,94299.50
2023-03-31T00:16:40.706Z,94309.69
2023-03-31T00:19:17.969Z,94303.09
2023-03-31T00:21:49.388Z,94298.50
2023-03-31T00:24:18.287Z,94299.66
2023-03-31T00:26:47.040Z,94299.22
2023-03-31T00:29:15.707Z,94295.56
2023-03-31T00:31:44.215Z,94305.91
2023-03-31T00:34:12.821Z,94294.63
2023-03-31T00:36:47.315Z,94294.66
2023-03-31T00:39:20.236Z,94294.47
2023-03-31T00:41:48.757Z,94289.47
2023-03-31T00:44:23.031Z,94284.72
2023-03-31T00:46:56.812Z,94282.09
2023-03-31T00:49:31.260Z,94288.75
2023-03-31T00:52:07.163Z,94278.25
2023-03-31T00:54:39.585Z,94284.22
2023-03-31T00:57:10.639Z,94285.22
2023-03-31T00:59:44.151Z,94285.16
2023-03-31T01:02:17.311Z,94279.88
2023-03-31T01:04:50.334Z,94279.31
2023-03-31T01:07:25.711Z,94275.09
2023-03-31T01:10:01.349Z,94277.44
2023-03-31T01:12:30.261Z,94277.19
2023-03-31T01:14:58.927Z,94281.34
2023-03-31T01:17:30.064Z,94281.31
2023-03-31T01:20:15.425Z,94283.38
2023-03-31T01:23:41.019Z,94287.31
2023-03-31T01:26:57.863Z,94296.44
2023-03-31T01:29:58.255Z,94294.91
2023-03-31T01:33:14.781Z,94288.09
2023-03-31T01:36:30.036Z,94303.59
2023-03-31T01:39:55.831Z,94301.97
2023-03-31T01:42:37.450Z,94299.59
2023-03-31T01:45:22.510Z,94309.50
2023-03-31T01:47:59.219Z,94311.00
2023-03-31T01:50:36.592Z,94316.66
2023-03-31T01:53:16.952Z,94319.03
2023-03-31T01:55:54.830Z,94322.31
2023-03-31T01:58:32.303Z,94329.09
2023-03-31T02:01:07.405Z,94319.63
2023-03-31T02:03:44.710Z,94319.59
2023-03-31T02:06:19.531Z,94316.22
2023-03-31T02:08:55.619Z,94328.19
2023-03-31T02:11:25.921Z,94327.22
2023-03-31T02:13:58.044Z,94328.34
2023-03-31T02:16:30.468Z,94333.34
2023-03-31T02:19:04.090Z,94336.13
2023-03-31T02:21:36.438Z,94353.41
2023-03-31T02:24:11.400Z,94359.09
2023-03-31T02:26:46.686Z,94360.34
2023-03-31T02:29:27.725Z,94364.13
2023-03-31T02:32:25.910Z,94366.56
2023-03-31T02:34:56.222Z,94365.47
2023-03-31T02:37:25.358Z,94359.59
2023-03-31T02:39:58.163Z,94348.94
2023-03-31T02:42:27.026Z,94361.50
2023-03-31T02:45:03.615Z,94348.81
2023-03-31T02:47:32.454Z,94338.25
2023-03-31T02:50:04.837Z,94327.44
2023-03-31T02:52:58.756Z,94329.41
2023-03-31T02:56:13.737Z,94334.44
2023-03-31T02:59:22.054Z,94328.84
2023-03-31T03:02:30.168Z,94319.84
2023-03-31T03:05:36.940Z,94317.09
2023-03-31T03:08:19.559Z,94307.41
2023-03-31T03:11:04.068Z,94304.38
2023-03-31T03:13:42.035Z,94295.25
2023-03-31T03:16:19.508Z,94297.00
2023-03-31T03:18:58.403Z,94305.31
2023-03-31T03:21:27.555Z,94306.13
2023-03-31T03:23:57.460Z,94298.91
2023-03-31T03:26:28.213Z,94306.53
2023-03-31T03:28:57.743Z,94302.91
2023-03-31T03:31:26.665Z,94301.31
2023-03-31T03:34:21.118Z,94303.25
2023-03-31T03:36:49.565Z,94303.13
2023-03-31T03:39:18.110Z,94302.16
2023-03-31T03:41:46.953Z,94303.25
2023-03-31T03:44:15.604Z,94297.06
2023-03-31T03:46:44.129Z,94296.66
2023-03-31T03:49:12.692Z,94288.00
2023-03-31T03:51:42.647Z,94295.13
2023-03-31T03:54:11.127Z,94294.03
2023-03-31T03:56:39.706Z,94309.56
2023-03-31T03:59:08.174Z,94302.91
2023-03-31T04:01:37.276Z,94313.06
2023-03-31T04:04:31.106Z,94312.16
2023-03-31T04:07:01.129Z,94311.56
2023-03-31T04:09:29.907Z,94312.75
2023-03-31T04:12:32.387Z,94314.59
2023-03-31T04:15:00.933Z,94308.63
2023-03-31T04:17:34.532Z,94315.44
2023-03-31T04:20:05.978Z,94316.16
2023-03-31T04:22:40.657Z,94308.94
2023-03-31T04:25:16.447Z,94306.63
2023-03-31T04:27:50.938Z,94305.59
2023-03-31T04:30:23.757Z,94312.28
2023-03-31T04:33:06.709Z,94294.97
2023-03-31T04:35:49.668Z,94296.19
2023-03-31T04:38:22.153Z,94293.88
2023-03-31T04:40:53.459Z,94298.44
2023-03-31T04:43:23.257Z,94297.56
2023-03-31T04:45:51.920Z,94302.06
2023-03-31T04:48:20.485Z,94302.56
2023-03-31T04:50:50.812Z,94295.56
2023-03-31T04:53:20.612Z,94297.53
2023-03-31T04:55:50.385Z,94291.63
2023-03-31T04:58:19.235Z,94289.31
2023-03-31T05:01:18.312Z,94287.53
2023-03-31T05:03:48.264Z,94282.31
2023-03-31T05:06:18.157Z,94273.69
2023-03-31T05:08:48.048Z,94274.50
2023-03-31T05:11:17.053Z,94272.13
2023-03-31T05:14:11.083Z,94267.19
2023-03-31T05:16:39.723Z,94280.50
2023-03-31T05:19:08.191Z,94264.56
2023-03-31T05:21:36.674Z,94263.03
2023-03-31T05:24:06.868Z,94256.84
2023-03-31T05:26:35.399Z,94255.59
2023-03-31T05:29:03.851Z,94258.47
2023-03-31T05:31:32.425Z,94260.31
2023-03-31T05:34:00.974Z,94256.19
2023-03-31T05:36:29.645Z,94252.88
2023-03-31T05:38:58.146Z,94261.63
2023-03-31T05:41:28.132Z,94261.72
2023-03-31T05:43:56.721Z,94249.19
2023-03-31T05:46:25.314Z,94249.84
2023-03-31T05:48:53.844Z,94257.00
2023-03-31T05:51:22.332Z,94262.03
2023-03-31T05:53:50.799Z,94260.31
2023-03-31T05:56:19.342Z,94259.06
2023-03-31T05:58:49.403Z,94257.53
2023-03-31T06:01:20.418Z,94258.09
2023-03-31T06:03:49.349Z,94261.00
2023-03-31T06:06:18.357Z,94258.13
2023-03-31T06:08:49.239Z,94251.31
2023-03-31T06:11:20.440Z,94259.00
2023-03-31T06:13:50.923Z,94251.94
2023-03-31T06:16:20.490Z,94250.38
2023-03-31T06:18:51.334Z,94248.00
2023-03-31T06:21:21.719Z,94256.69
2023-03-31T06:23:50.654Z,94253.31
2023-03-31T06:26:20.630Z,94259.38
2023-03-31T06:28:51.420Z,94259.41
2023-03-31T06:31:26.011Z,94256.03
2023-03-31T06:33:54.819Z,94247.91
2023-03-31T06:36:24.037Z,94257.38
2023-03-31T06:38:52.592Z,94253.69
2023-03-31T06:41:22.544Z,94259.25
2023-03-31T06:43:52.602Z,94253.50
2023-03-31T06:46:21.231Z,94260.13
2023-03-31T06:48:49.738Z,94260.13
2023-03-31T06:51:18.609Z,94252.78
2023-03-31T06:53:47.209Z,94254.34
2023-03-31T06:56:15.677Z,94247.78
2023-03-31T06:58:44.240Z,94237.81
2023-03-31T07:01:14.157Z,94214.41
2023-03-31T07:03:42.671Z,94208.59
2023-03-31T07:07:01.926Z,94201.19
2023-03-31T07:09:30.534Z,94197.22
2023-03-31T07:11:58.999Z,94188.50
2023-03-31T07:14:27.605Z,94191.09
2023-03-31T07:16:57.437Z,94189.75
2023-03-31T07:19:26.001Z,94191.25
2023-03-31T07:21:54.931Z,94195.72
2023-03-31T07:24:54.049Z,94198.31
2023-03-31T07:27:26.100Z,94194.63
2023-03-31T07:29:55.222Z,94203.53
2023-03-31T07:32:27.011Z,94190.34
2023-03-31T07:34:56.937Z,94197.69
2023-03-31T07:37:28.026Z,94186.94
2023-03-31T07:39:59.314Z,94181.13
2023-03-31T07:42:27.884Z,94185.25
2023-03-31T07:44:56.396Z,94187.88
2023-03-31T07:47:26.715Z,94195.16
2023-03-31T07:50:21.013Z,94197.75
2023-03-31T07:52:49.478Z,94199.38
2023-03-31T07:55:42.850Z,94188.22
2023-03-31T07:58:12.546Z,94181.22
2023-03-31T08:00:41.187Z,94181.75
2023-03-31T08:03:11.148Z,94174.72
2023-03-31T08:05:39.585Z,94181.41
2023-03-31T08:08:08.019Z,94160.75
2023-03-31T08:10:36.519Z,94176.41
2023-03-31T08:13:05.891Z,94169.72
2023-03-31T08:15:34.305Z,94170.09
2023-03-31T08:18:04.009Z,94165.78
2023-03-31T08:20:34.154Z,94160.84
2023-03-31T08:23:02.718Z,94154.44
2023-03-31T08:25:31.824Z,94158.53
2023-03-31T08:28:00.397Z,94161.06
2023-03-31T08:30:28.891Z,94156.25
2023-03-31T08:32:57.385Z,94142.84
2023-03-31T08:35:25.933Z,94157.41
2023-03-31T08:37:55.784Z,94163.66
2023-03-31T08:40:28.431Z,94147.50
2023-03-31T08:43:03.806Z,94154.84
2023-03-31T08:45:36.826Z,94152.59
2023-03-31T08:48:16.944Z,94154.78
2023-03-31T08:50:53.964Z,94145.00
2023-03-31T08:53:30.322Z,94141.84
2023-03-31T08:56:01.486Z,94134.22
2023-03-31T08:58:41.117Z,94136.59
2023-03-31T09:01:25.612Z,94139.16
2023-03-31T09:04:21.604Z,94134.41
2023-03-31T09:07:02.395Z,94132.81
2023-03-31T09:09:49.937Z,94137.47
2023-03-31T09:12:28.950Z,94124.19
2023-03-31T09:15:02.311Z,94124.72
2023-03-31T09:17:35.018Z,94119.84
2023-03-31T09:20:09.338Z,94116.06
2023-03-31T09:22:44.494Z,94111.88
2023-03-31T09:25:21.986Z,94124.66
2023-03-31T09:28:14.585Z,94124.00
2023-03-31T09:30:43.794Z,94126.63
2023-03-31T09:33:17.897Z,94117.38
2023-03-31T09:36:17.185Z,94114.63
2023-03-31T09:38:47.857Z,94117.69
2023-03-31T09:41:19.934Z,94110.50
2023-03-31T09:43:49.787Z,94105.88
2023-03-31T09:46:27.330Z,94103.09
2023-03-31T09:49:04.401Z,94106.41
2023-03-31T09:51:38.791Z,94099.63
2023-03-31T09:54:17.262Z,94099.06
2023-03-31T09:56:54.253Z,94096.28
2023-03-31T09:59:31.117Z,94083.94
2023-03-31T10:02:03.598Z,94082.91
2023-03-31T10:04:35.849Z,94075.75
2023-03-31T10:07:08.104Z,94067.75
2023-03-31T10:09:40.610Z,94062.47
2023-03-31T10:12:20.264Z,94065.84
2023-03-31T10:14:52.047Z,94059.38
2023-03-31T10:17:24.022Z,94068.59
2023-03-31T10:19:55.252Z,94062.13
2023-03-31T10:22:32.478Z,94047.44
2023-03-31T10:25:15.688Z,94051.34
2023-03-31T10:27:51.047Z,94056.25
2023-03-31T10:30:25.896Z,94046.06
2023-03-31T10:32:54.984Z,94047.25
2023-03-31T10:35:31.279Z,94036.66
2023-03-31T10:38:05.955Z,94033.31
2023-03-31T10:40:37.372Z,94032.44
2023-03-31T10:43:17.048Z,94035.97
2023-03-31T10:45:51.178Z,94023.91
2023-03-31T10:48:26.530Z,94029.50
2023-03-31T10:50:56.525Z,94029.50
2023-03-31T10:53:51.906Z,94026.13
2023-03-31T10:56:38.125Z,94027.59
2023-03-31T10:59:39.393Z,94018.59
2023-03-31T11:02:46.794Z,94011.72
2023-03-31T11:05:25.478Z,94015.75
2023-03-31T11:08:17.377Z,94017.59
2023-03-31T11:11:15.436Z,94009.19
2023-03-31T11:13:53.649Z,94006.00
2023-03-31T11:16:33.600Z,94009.91
2023-03-31T11:19:18.915Z,94005.00
2023-03-31T11:22:01.535Z,94007.56
2023-03-31T11:25:09.500Z,93996.97
2023-03-31T11:27:56.523Z,93988.94
2023-03-31T11:30:31.903Z,93986.47
2023-03-31T11:33:24.321Z,93987.47
2023-03-31T11:36:14.854Z,93982.72
2023-03-31T11:39:01.248Z,93979.97
2023-03-31T11:41:38.077Z,93973.41
2023-03-31T11:44:11.529Z,93970.00
2023-03-31T11:46:48.177Z,93966.22
2023-03-31T11:49:23.763Z,93955.84
2023-03-31T11:51:57.342Z,93948.09
2023-03-31T11:54:34.675Z,93953.06
2023-03-31T11:57:11.649Z,93935.84
2023-03-31T11:59:42.854Z,93932.66
2023-03-31T12:02:23.054Z,93930.19
2023-03-31T12:04:56.467Z,93933.69
2023-03-31T12:07:32.184Z,93924.91
2023-03-31T12:10:35.491Z,93922.53
2023-03-31T12:13:46.195Z,93916.72
2023-03-31T12:16:21.136Z,93915.75
2023-03-31T12:19:04.193Z,93920.47
2023-03-31T12:21:37.287Z,93910.25
2023-03-31T12:24:41.251Z,93911.16
2023-03-31T12:27:18.781Z,93911.34
2023-03-31T12:29:55.426Z,93903.00
2023-03-31T12:32:29.644Z,93903.00
2023-03-31T12:35:05.776Z,93899.34
2023-03-31T12:38:06.466Z,93890.13
2023-03-31T12:40:50.260Z,93878.38
2023-03-31T12:44:11.394Z,93869.50
2023-03-31T12:47:21.421Z,93862.97
2023-03-31T12:50:24.238Z,93855.66
2023-03-31T12:53:05.779Z,93854.78
2023-03-31T12:55:41.461Z,93848.94
2023-03-31T12:58:47.487Z,93841.50
2023-03-31T13:01:19.838Z,93836.97
2023-03-31T13:03:55.191Z,93835.22
2023-03-31T13:06:59.866Z,93830.66
2023-03-31T13:09:54.136Z,93824.41
2023-03-31T13:12:25.693Z,93810.16
2023-03-31T13:15:00.094Z,93793.44
2023-03-31T13:17:33.147Z,93778.91
2023-03-31T13:20:31.932Z,93778.63
2023-03-31T13:23:19.645Z,93758.75
2023-03-31T13:25:52.227Z,93756.44
2023-03-31T13:28:35.483Z,93755.50
2023-03-31T13:31:05.435Z,93756.78
2023-03-31T13:33:41.394Z,93748.06
2023-03-31T13:36:51.003Z,93745.88
2023-03-31T13:40:17.853Z,93735.41
2023-03-31T13:43:32.367Z,93733.34
2023-03-31T13:46:44.002Z,93732.25
2023-03-31T13:49:55.342Z,93724.59
2023-03-31T13:52:42.120Z,93718.84
2023-03-31T13:56:11.302Z,93714.16
2023-03-31T13:59:09.802Z,93718.88
2023-03-31T14:02:12.185Z,93710.44
2023-03-31T14:05:24.719Z,93703.09
2023-03-31T14:08:00.385Z,93711.22
2023-03-31T14:10:54.916Z,93711.06
2023-03-31T14:13:26.883Z,93713.06
2023-03-31T14:16:02.332Z,93703.53
2023-03-31T14:18:35.168Z,93705.19
2023-03-31T14:21:54.051Z,93699.06
2023-03-31T14:24:34.455Z,93685.44
2023-03-31T14:27:18.466Z,93693.03
2023-03-31T14:29:57.944Z,93687.81
2023-03-31T14:32:41.520Z,93676.53
2023-03-31T14:35:29.965Z,93676.81
2023-03-31T14:37:59.049Z,93672.72
2023-03-31T14:40:27.995Z,93668.34
2023-03-31T14:42:56.518Z,93664.13
2023-03-31T14:45:31.481Z,93659.59
2023-03-31T14:48:13.562Z,93658.88
2023-03-31T14:50:45.852Z,93658.22
2023-03-31T14:53:19.077Z,93657.22
2023-03-31T14:55:57.994Z,93648.41
2023-03-31T14:58:34.928Z,93643.59
2023-03-31T15:01:07.463Z,93630.34
2023-03-31T15:03:42.620Z,93642.25
2023-03-31T15:06:12.607Z,93642.09
2023-03-31T15:08:42.168Z,93639.41
2023-03-31T15:11:22.091Z,93642.06
2023-03-31T15:14:04.361Z,93644.88
2023-03-31T15:16:42.240Z,93639.13
2023-03-31T15:19:18.432Z,93640.66
2023-03-31T15:22:16.348Z,93644.25
2023-03-31T15:24:44.879Z,93642.53
2023-03-31T15:27:29.805Z,93643.47
2023-03-31T15:30:07.332Z,93638.97
2023-03-31T15:32:39.062Z,93641.94
2023-03-31T15:35:23.221Z,93631.94
2023-03-31T15:38:04.014Z,93627.56
2023-03-31T15:40:39.710Z,93621.81
2023-03-31T15:43:25.414Z,93641.13
2023-03-31T15:45:56.044Z,93636.28
2023-03-31T15:48:30.520Z,93634.28
2023-03-31T15:51:08.449Z,93625.84
2023-03-31T15:54:00.777Z,93628.03
2023-03-31T15:56:35.807Z,93619.75
2023-03-31T15:59:07.562Z,93624.25
2023-03-31T16:01:42.474Z,93620.50
2023-03-31T16:04:15.059Z,93623.44
2023-03-31T16:06:52.596Z,93624.00
2023-03-31T16:09:27.832Z,93625.41
2023-03-31T16:12:01.649Z,93619.44
2023-03-31T16:14:35.578Z,93616.59
2023-03-31T16:17:09.906Z,93616.69
2023-03-31T16:19:44.491Z,93619.13
2023-03-31T16:22:21.071Z,93617.47
2023-03-31T16:24:50.123Z,93615.06
2023-03-31T16:27:20.254Z,93614.56
2023-03-31T16:29:48.732Z,93619.09
2023-03-31T16:32:20.740Z,93619.47
2023-03-31T16:35:01.290Z,93620.91
2023-03-31T16:37:31.377Z,93624.06
2023-03-31T16:39:59.904Z,93621.25
2023-03-31T16:42:28.626Z,93611.13
2023-03-31T16:45:12.571Z,93616.94
2023-03-31T16:47:45.457Z,93613.59
2023-03-31T16:50:17.424Z,93614.50
2023-03-31T16:52:47.342Z,93603.34
2023-03-31T16:55:16.137Z,93604.31
2023-03-31T16:57:44.544Z,93608.16
2023-03-31T17:00:14.534Z,93608.38
2023-03-31T17:02:43.177Z,93624.16
2023-03-31T17:05:13.482Z,93617.41
2023-03-31T17:07:42.627Z,93618.63
2023-03-31T17:10:13.454Z,93633.75
2023-03-31T17:12:42.132Z,93632.34
2023-03-31T17:15:12.829Z,93630.38
2023-03-31T17:17:41.642Z,93627.38
2023-03-31T17:20:12.142Z,93618.59
2023-03-31T17:22:40.868Z,93618.47
2023-03-31T17:25:11.561Z,93617.59
2023-03-31T17:27:40.048Z,93619.50
2023-03-31T17:30:10.070Z,93616.16
2023-03-31T17:32:39.060Z,93615.19
2023-03-31T17:35:10.417Z,93609.06
2023-03-31T17:37:59.837Z,93609.75
2023-03-31T17:40:31.524Z,93614.28
2023-03-31T17:42:59.987Z,93619.59
2023-03-31T17:45:28.556Z,93629.66
2023-03-31T17:47:57.050Z,93629.16
2023-03-31T17:50:26.249Z,93625.75
2023-03-31T17:52:55.700Z,93625.03
2023-03-31T17:55:24.837Z,93619.34
2023-03-31T17:57:54.820Z,93626.75
2023-03-31T18:00:23.638Z,93629.19
2023-03-31T18:02:52.477Z,93623.97
2023-03-31T18:05:21.598Z,93628.47
2023-03-31T18:07:50.080Z,93631.13
2023-03-31T18:10:24.481Z,93627.81
2023-03-31T18:12:55.030Z,93630.44
2023-03-31T18:15:23.641Z,93634.94
2023-03-31T18:17:52.140Z,93635.16
2023-03-31T18:20:21.145Z,93642.03
2023-03-31T18:22:49.530Z,93629.69
2023-03-31T18:25:18.211Z,93628.66
2023-03-31T18:27:47.364Z,93623.41
2023-03-31T18:30:17.543Z,93631.56
2023-03-31T18:32:46.342Z,93632.34
2023-03-31T18:35:16.789Z,93615.09
2023-03-31T18:37:46.148Z,93620.84
2023-03-31T18:40:15.046Z,93618.78
2023-03-31T18:42:43.701Z,93607.75
2023-03-31T18:45:12.612Z,93619.28
2023-03-31T18:47:42.692Z,93610.38
2023-03-31T18:50:13.934Z,93608.53
2023-03-31T18:52:42.604Z,93615.31
2023-03-31T18:55:11.874Z,93617.66
2023-03-31T18:57:40.519Z,93621.84
2023-03-31T19:00:11.028Z,93620.56
2023-03-31T19:02:42.586Z,93620.53
2023-03-31T19:05:11.625Z,93625.78
2023-03-31T19:07:40.664Z,93628.41
2023-03-31T19:10:10.693Z,93629.72
2023-03-31T19:12:39.208Z,93627.69
2023-03-31T19:15:09.555Z,93629.25
2023-03-31T19:17:38.094Z,93628.22
2023-03-31T19:20:16.261Z,93628.75
2023-03-31T19:22:45.178Z,93624.03
2023-03-31T19:25:13.874Z,93617.75
2023-03-31T19:27:44.572Z,93634.25
2023-03-31T19:30:19.598Z,93624.56
2023-03-31T19:32:49.942Z,93622.19
2023-03-31T19:35:21.199Z,93619.81
2023-03-31T19:37:51.590Z,93613.81
2023-03-31T19:40:20.514Z,93611.94
2023-03-31T19:42:48.924Z,93624.25
2023-03-31T19:45:17.602Z,93620.56
2023-03-31T19:47:46.088Z,93618.19
2023-03-31T19:50:14.649Z,93618.97
2023-03-31T19:52:46.865Z,93621.59
2023-03-31T19:55:17.260Z,93622.88
2023-03-31T19:57:46.034Z,93624.19
2023-03-31T20:00:18.278Z,93615.03
2023-03-31T20:02:48.281Z,93617.13
2023-03-31T20:05:17.197Z,93624.97
2023-03-31T20:07:47.208Z,93627.63
2023-03-31T20:10:15.947Z,93622.94
2023-03-31T20:12:44.463Z,93632.91
2023-03-31T20:15:12.884Z,93626.91
2023-03-31T20:17:41.397Z,93625.06
2023-03-31T20:20:10.922Z,93625.06
2023-03-31T20:22:41.700Z,93621.94
2023-03-31T20:25:12.335Z,93621.94
2023-03-31T20:27:42.212Z,93612.50
2023-03-31T20:30:13.319Z,93608.34
2023-03-31T20:32:41.875Z,93608.88
2023-03-31T20:35:10.778Z,93598.66
2023-03-31T20:37:39.215Z,93595.22
2023-03-31T20:40:09.489Z,93602.56
2023-03-31T20:42:39.287Z,93595.25
2023-03-31T20:45:09.797Z,93595.47
2023-03-31T20:47:38.730Z,93597.56
2023-03-31T20:50:08.638Z,93592.84
2023-03-31T20:52:37.062Z,93595.97
2023-03-31T20:55:06.463Z,93600.91
2023-03-31T20:57:35.192Z,93588.84
2023-03-31T21:00:07.114Z,93601.69
2023-03-31T21:02:35.674Z,93600.59
2023-03-31T21:05:04.218Z,93601.34
2023-03-31T21:07:32.737Z,93604.22
2023-03-31T21:10:01.189Z,93594.31
2023-03-31T21:12:29.760Z,93594.31
2023-03-31T21:14:58.173Z,93598.28
2023-03-31T21:17:28.086Z,93593.03
2023-03-31T21:19:56.746Z,93584.63
2023-03-31T21:22:25.196Z,93577.00
2023-03-31T21:24:53.612Z,93591.94
2023-03-31T21:27:22.236Z,93575.16
2023-03-31T21:29:50.704Z,93580.13
2023-03-31T21:32:19.316Z,93572.50
2023-03-31T21:34:49.179Z,93568.34
2023-03-31T21:37:17.568Z,93574.38
2023-03-31T21:39:46.497Z,93574.63
2023-03-31T21:42:15.061Z,93568.88
2023-03-31T21:45:09.443Z,93568.88
2023-03-31T21:47:38.511Z,93578.09
2023-03-31T21:50:09.619Z,93582.84
2023-03-31T21:52:38.106Z,93570.25
2023-03-31T21:55:07.348Z,93574.63
2023-03-31T21:57:35.850Z,93571.88
2023-03-31T22:00:05.236Z,93573.53
2023-03-31T22:02:33.954Z,93570.53
2023-03-31T22:05:03.264Z,93557.84
2023-03-31T22:07:33.781Z,93562.66
2023-03-31T22:10:27.905Z,93551.88
2023-03-31T22:12:56.335Z,93558.97
2023-03-31T22:15:25.051Z,93558.16
2023-03-31T22:17:53.636Z,93555.06
2023-03-31T22:20:22.376Z,93553.50
2023-03-31T22:22:52.117Z,93559.75
2023-03-31T22:25:21.300Z,93549.25
2023-03-31T22:27:49.705Z,93556.63
2023-03-31T22:30:18.358Z,93560.31
2023-03-31T22:32:46.801Z,93560.81
2023-03-31T22:35:15.892Z,93571.44
2023-03-31T22:37:44.376Z,93564.97
2023-03-31T22:40:14.269Z,93559.22
2023-03-31T22:42:43.001Z,93562.13
2023-03-31T22:45:12.100Z,93562.97
2023-03-31T22:47:42.256Z,93555.88
2023-03-31T22:50:12.044Z,93559.31
2023-03-31T22:52:40.521Z,93554.09
2023-03-31T22:55:35.078Z,93561.22
2023-03-31T22:58:03.667Z,93556.81
2023-03-31T23:00:32.112Z,93556.81
2023-03-31T23:03:00.798Z,93556.47
2023-03-31T23:05:29.443Z,93547.25
2023-03-31T23:07:58.227Z,93541.75
2023-03-31T23:10:27.313Z,93538.81
2023-03-31T23:12:59.176Z,93545.78
2023-03-31T23:15:27.821Z,93537.50
2023-03-31T23:17:56.305Z,93540.06
2023-03-31T23:20:24.763Z,93529.41
2023-03-31T23:22:53.511Z,93527.09
2023-03-31T23:25:22.163Z,93528.16
2023-03-31T23:27:50.641Z,93523.06
2023-03-31T23:30:20.817Z,93517.38
2023-03-31T23:32:49.267Z,93515.84
2023-03-31T23:35:17.920Z,93513.78
2023-03-31T23:37:46.825Z,93508.84
2023-03-31T23:40:15.352Z,93508.06
2023-03-31T23:42:44.175Z,93507.56
2023-03-31T23:45:13.152Z,93505.69
2023-03-31T23:47:43.004Z,93507.56
2023-03-31T23:50:12.466Z,93505.53
2023-03-31T23:52:41.034Z,93504.72
2023-03-31T23:55:10.686Z,93503.16
2023-03-31T23:57:39.254Z,93517.84
